MSD YXMV-YSSY
Flight info
| Callsign | MSD |
|---|---|
| Flight time | 0h 12m |
| Altitude | 1000 |
| Route | SYDNEY VFR HELI ROUTE |
| Aircraft | H160/L-SBDGRY/S |
Departure
| Time | 2026-05-01 08:20 |
|---|---|
| Airport | Mona Vale Hospital Helipad (YXMV) |
Arrival
| Time | 2026-05-01 08:32 |
|---|---|
| Airport | Sydney Kingsford Smith International Airport (YSSY) |
| Time | Latitude | Longitude | Altitude | Speed | Heading |
|---|---|---|---|---|---|
| 2026-05-01 08:15 | -33.68451 | 151.30834 | 35 ft | 0 kts | 0° |
| 2026-05-01 08:19 | -33.68446 | 151.30832 | 42 ft | 4 kts | 359° |
| 2026-05-01 08:19 | -33.68470 | 151.30904 | 153 ft | 21 kts | 358° |
| 2026-05-01 08:19 | -33.68560 | 151.31120 | 358 ft | 24 kts | 237° |
| 2026-05-01 08:20 | -33.68517 | 151.31176 | 545 ft | 9 kts | 198° |
| 2026-05-01 08:20 | -33.68636 | 151.31039 | 731 ft | 42 kts | 199° |
| 2026-05-01 08:20 | -33.69018 | 151.31101 | 893 ft | 61 kts | 166° |
| 2026-05-01 08:20 | -33.69489 | 151.31123 | 953 ft | 72 kts | 183° |
| 2026-05-01 08:21 | -33.69962 | 151.31013 | 981 ft | 68 kts | 179° |
| 2026-05-01 08:21 | -33.70439 | 151.31013 | 989 ft | 70 kts | 173° |
| 2026-05-01 08:21 | -33.70925 | 151.30999 | 990 ft | 70 kts | 180° |
| 2026-05-01 08:21 | -33.71405 | 151.30938 | 770 ft | 71 kts | 185° |
| 2026-05-01 08:22 | -33.71885 | 151.30835 | 618 ft | 71 kts | 181° |
| 2026-05-01 08:22 | -33.72368 | 151.30753 | 553 ft | 68 kts | 178° |
| 2026-05-01 08:22 | -33.72841 | 151.30692 | 524 ft | 70 kts | 176° |
| 2026-05-01 08:22 | -33.73320 | 151.30714 | 516 ft | 67 kts | 161° |
| 2026-05-01 08:23 | -33.73791 | 151.30732 | 507 ft | 70 kts | 176° |
| 2026-05-01 08:23 | -33.74268 | 151.30681 | 509 ft | 68 kts | 175° |
| 2026-05-01 08:23 | -33.74766 | 151.30637 | 491 ft | 81 kts | 175° |
| 2026-05-01 08:23 | -33.75373 | 151.30614 | 495 ft | 91 kts | 178° |
| 2026-05-01 08:24 | -33.76011 | 151.30558 | 493 ft | 93 kts | 180° |
| 2026-05-01 08:24 | -33.76623 | 151.30491 | 697 ft | 92 kts | 177° |
| 2026-05-01 08:24 | -33.77279 | 151.30434 | 843 ft | 102 kts | 178° |
| 2026-05-01 08:24 | -33.77993 | 151.30405 | 933 ft | 102 kts | 177° |
| 2026-05-01 08:25 | -33.78700 | 151.30279 | 967 ft | 104 kts | 192° |
| 2026-05-01 08:25 | -33.79351 | 151.29870 | 979 ft | 107 kts | 210° |
| 2026-05-01 08:25 | -33.79956 | 151.29343 | 980 ft | 107 kts | 215° |
| 2026-05-01 08:25 | -33.80537 | 151.28811 | 984 ft | 107 kts | 213° |
| 2026-05-01 08:26 | -33.81125 | 151.28280 | 986 ft | 105 kts | 213° |
| 2026-05-01 08:26 | -33.81724 | 151.27752 | 986 ft | 108 kts | 212° |
| 2026-05-01 08:26 | -33.82308 | 151.27245 | 988 ft | 104 kts | 212° |
| 2026-05-01 08:26 | -33.82909 | 151.26734 | 985 ft | 106 kts | 211° |
| 2026-05-01 08:27 | -33.83508 | 151.26232 | 987 ft | 104 kts | 213° |
| 2026-05-01 08:27 | -33.84107 | 151.25733 | 985 ft | 106 kts | 211° |
| 2026-05-01 08:27 | -33.84710 | 151.25239 | 985 ft | 104 kts | 214° |
| 2026-05-01 08:27 | -33.85219 | 151.24596 | 985 ft | 108 kts | 237° |
| 2026-05-01 08:28 | -33.85462 | 151.23751 | 985 ft | 107 kts | 266° |
| 2026-05-01 08:28 | -33.85436 | 151.22863 | 985 ft | 106 kts | 281° |
| 2026-05-01 08:28 | -33.85359 | 151.21985 | 985 ft | 106 kts | 276° |
| 2026-05-01 08:28 | -33.85389 | 151.21098 | 984 ft | 107 kts | 262° |
| 2026-05-01 08:29 | -33.85637 | 151.20272 | 982 ft | 109 kts | 236° |
| 2026-05-01 08:29 | -33.86239 | 151.19915 | 984 ft | 102 kts | 169° |
| 2026-05-01 08:29 | -33.86799 | 151.20130 | 983 ft | 104 kts | 163° |
| 2026-05-01 08:29 | -33.87509 | 151.19978 | 989 ft | 105 kts | 206° |
| 2026-05-01 08:30 | -33.88070 | 151.19402 | 982 ft | 107 kts | 216° |
| 2026-05-01 08:30 | -33.88717 | 151.18983 | 986 ft | 104 kts | 193° |
| 2026-05-01 08:30 | -33.89382 | 151.18747 | 940 ft | 95 kts | 188° |
| 2026-05-01 08:30 | -33.89993 | 151.18632 | 887 ft | 83 kts | 180° |
| 2026-05-01 08:31 | -33.90532 | 151.18569 | 767 ft | 74 kts | 181° |
| 2026-05-01 08:31 | -33.91019 | 151.18489 | 699 ft | 68 kts | 180° |
| 2026-05-01 08:31 | -33.91475 | 151.18424 | 614 ft | 65 kts | 175° |
| 2026-05-01 08:31 | -33.91918 | 151.18483 | 549 ft | 62 kts | 165° |
| 2026-05-01 08:32 | -33.92331 | 151.18571 | 447 ft | 62 kts | 159° |
| 2026-05-01 08:32 | -33.92763 | 151.18672 | 372 ft | 63 kts | 163° |
| 2026-05-01 08:32 | -33.93166 | 151.18758 | 315 ft | 54 kts | 158° |
| 2026-05-01 08:32 | -33.93486 | 151.18890 | 214 ft | 43 kts | 154° |
| 2026-05-01 08:33 | -33.93724 | 151.18974 | 150 ft | 30 kts | 153° |
| 2026-05-01 08:33 | -33.93867 | 151.19044 | 63 ft | 16 kts | 151° |
| 2026-05-01 08:33 | -33.93911 | 151.19067 | 23 ft | 0 kts | 153° |
| 2026-05-01 08:40 | -33.93964 | 151.19054 | 217 ft | 9 kts | 276° |
| 2026-05-01 08:40 | -33.93981 | 151.18940 | 365 ft | 25 kts | 282° |
| 2026-05-01 08:40 | -33.93837 | 151.18605 | 394 ft | 67 kts | 299° |
| 2026-05-01 08:41 | -33.93620 | 151.17940 | 294 ft | 106 kts | 290° |
| 2026-05-01 08:41 | -33.93345 | 151.17025 | 146 ft | 115 kts | 305° |
| 2026-05-01 08:41 | -33.92980 | 151.16220 | 347 ft | 104 kts | 299° |
| 2026-05-01 08:41 | -33.92639 | 151.15499 | 624 ft | 94 kts | 303° |
| 2026-05-01 08:42 | -33.92338 | 151.14840 | 824 ft | 85 kts | 303° |
| 2026-05-01 08:42 | -33.92086 | 151.14237 | 914 ft | 76 kts | 303° |
| 2026-05-01 08:42 | -33.91832 | 151.13588 | 926 ft | 101 kts | 301° |
| 2026-05-01 08:42 | -33.91545 | 151.12814 | 967 ft | 99 kts | 302° |
| 2026-05-01 08:43 | -33.91221 | 151.12086 | 972 ft | 98 kts | 308° |
| 2026-05-01 08:43 | -33.90856 | 151.11389 | 978 ft | 99 kts | 307° |
| 2026-05-01 08:43 | -33.90563 | 151.10647 | 981 ft | 98 kts | 295° |
| 2026-05-01 08:43 | -33.90322 | 151.09889 | 982 ft | 98 kts | 301° |
| 2026-05-01 08:44 | -33.89983 | 151.09188 | 983 ft | 96 kts | 311° |
| 2026-05-01 08:44 | -33.89586 | 151.08553 | 983 ft | 95 kts | 313° |
| 2026-05-01 08:44 | -33.89188 | 151.07917 | 985 ft | 95 kts | 313° |
| 2026-05-01 08:44 | -33.88802 | 151.07276 | 985 ft | 96 kts | 312° |
| 2026-05-01 08:45 | -33.88389 | 151.06645 | 986 ft | 96 kts | 316° |
| 2026-05-01 08:45 | -33.87954 | 151.06031 | 989 ft | 96 kts | 317° |
| 2026-05-01 08:45 | -33.87515 | 151.05436 | 989 ft | 94 kts | 320° |
| 2026-05-01 08:45 | -33.87040 | 151.04934 | 986 ft | 91 kts | 328° |
| 2026-05-01 08:46 | -33.86521 | 151.04495 | 987 ft | 92 kts | 333° |
| 2026-05-01 08:46 | -33.85956 | 151.04107 | 991 ft | 93 kts | 338° |
| 2026-05-01 08:46 | -33.85376 | 151.03787 | 993 ft | 91 kts | 341° |
| 2026-05-01 08:46 | -33.84795 | 151.03455 | 987 ft | 93 kts | 339° |
| 2026-05-01 08:47 | -33.84235 | 151.03077 | 990 ft | 93 kts | 334° |
| 2026-05-01 08:47 | -33.83677 | 151.02694 | 987 ft | 91 kts | 336° |
| 2026-05-01 08:47 | -33.83112 | 151.02334 | 988 ft | 93 kts | 338° |
| 2026-05-01 08:47 | -33.82581 | 151.01893 | 992 ft | 95 kts | 316° |
| 2026-05-01 08:48 | -33.82267 | 151.01184 | 968 ft | 100 kts | 296° |
| 2026-05-01 08:48 | -33.81905 | 151.00494 | 836 ft | 96 kts | 332° |
| 2026-05-01 08:48 | -33.81290 | 151.00254 | 738 ft | 94 kts | 358° |
| 2026-05-01 08:48 | -33.80668 | 151.00074 | 704 ft | 84 kts | 332° |
| 2026-05-01 08:49 | -33.80434 | 150.99573 | 748 ft | 63 kts | 256° |
| 2026-05-01 08:49 | -33.80644 | 150.99360 | 759 ft | 26 kts | 123° |
| 2026-05-01 08:49 | -33.80540 | 150.99513 | 575 ft | 43 kts | 17° |
| 2026-05-01 08:49 | -33.80202 | 150.99364 | 359 ft | 50 kts | 317° |
| 2026-05-01 08:50 | -33.80076 | 150.99052 | 278 ft | 37 kts | 295° |
| 2026-05-01 08:50 | -33.80015 | 150.98872 | 222 ft | 2 kts | 293° |
| 2026-05-01 08:50 | -33.80008 | 150.98850 | 153 ft | 2 kts | 238° |
| 2026-05-01 08:50 | -33.80032 | 150.98842 | 137 ft | 4 kts | 179° |
| 2026-05-01 08:51 | -33.80041 | 150.98841 | 130 ft | 0 kts | 180° |
| 2026-05-01 08:51 | -33.80054 | 150.98846 | 92 ft | 5 kts | 180° |
| 2026-05-01 08:51 | -33.80061 | 150.98851 | 60 ft | 0 kts | 181° |